sensor_id;sensor_type;location;lat;lon;timestamp;pressure;altitude;pressure_sealevel;temperature;humidity
15634;BME280;14654;48.898;8.308;2023-04-22T00:01:01;99568.78;;;10.67;100.00
15634;BME280;14654;48.898;8.308;2023-04-22T00:03:27;99576.56;;;10.67;100.00
15634;BME280;14654;48.898;8.308;2023-04-22T00:05:53;99574.00;;;10.65;100.00
15634;BME280;14654;48.898;8.308;2023-04-22T00:08:18;99582.66;;;10.64;100.00
15634;BME280;14654;48.898;8.308;2023-04-22T00:10:44;99574.03;;;10.64;100.00
15634;BME280;14654;48.898;8.308;2023-04-22T00:13:09;99572.31;;;10.63;100.00
15634;BME280;14654;48.898;8.308;2023-04-22T00:15:34;99566.31;;;10.62;100.00
15634;BME280;14654;48.898;8.308;2023-04-22T00:18:00;99574.97;;;10.61;100.00
15634;BME280;14654;48.898;8.308;2023-04-22T00:20:26;99570.72;;;10.59;100.00
15634;BME280;14654;48.898;8.308;2023-04-22T00:22:51;99577.59;;;10.58;100.00
15634;BME280;14654;48.898;8.308;2023-04-22T00:25:17;99569.88;;;10.57;100.00
15634;BME280;14654;48.898;8.308;2023-04-22T00:27:42;99566.44;;;10.56;100.00
15634;BME280;14654;48.898;8.308;2023-04-22T00:30:09;99562.13;;;10.55;100.00
15634;BME280;14654;48.898;8.308;2023-04-22T00:32:35;99566.47;;;10.53;100.00
15634;BME280;14654;48.898;8.308;2023-04-22T00:35:02;99562.19;;;10.52;100.00
15634;BME280;14654;48.898;8.308;2023-04-22T00:37:27;99567.34;;;10.52;100.00
15634;BME280;14654;48.898;8.308;2023-04-22T00:39:52;99559.69;;;10.49;100.00
15634;BME280;14654;48.898;8.308;2023-04-22T00:42:18;99556.28;;;10.47;100.00
15634;BME280;14654;48.898;8.308;2023-04-22T00:44:45;99560.56;;;10.46;100.00
15634;BME280;14654;48.898;8.308;2023-04-22T00:47:11;99564.94;;;10.44;100.00
15634;BME280;14654;48.898;8.308;2023-04-22T00:49:36;99568.44;;;10.42;100.00
15634;BME280;14654;48.898;8.308;2023-04-22T00:52:03;99560.75;;;10.37;100.00
15634;BME280;14654;48.898;8.308;2023-04-22T00:54:28;99566.03;;;10.31;100.00
15634;BME280;14654;48.898;8.308;2023-04-22T00:56:55;99566.16;;;10.25;100.00
15634;BME280;14654;48.898;8.308;2023-04-22T00:59:21;99564.47;;;10.24;100.00
15634;BME280;14654;48.898;8.308;2023-04-22T01:01:48;99571.44;;;10.18;100.00
15634;BME280;14654;48.898;8.308;2023-04-22T01:04:14;99563.78;;;10.14;100.00
15634;BME280;14654;48.898;8.308;2023-04-22T01:06:42;99573.31;;;10.10;100.00
15634;BME280;14654;48.898;8.308;2023-04-22T01:09:08;99573.38;;;10.07;100.00
15634;BME280;14654;48.898;8.308;2023-04-22T01:11:36;99576.81;;;10.07;100.00
15634;BME280;14654;48.898;8.308;2023-04-22T01:14:02;99583.72;;;10.07;100.00
15634;BME280;14654;48.898;8.308;2023-04-22T01:16:29;99580.25;;;10.06;100.00
15634;BME280;14654;48.898;8.308;2023-04-22T01:18:55;99576.00;;;10.04;100.00
15634;BME280;14654;48.898;8.308;2023-04-22T01:21:20;99586.41;;;10.02;100.00
15634;BME280;14654;48.898;8.308;2023-04-22T01:23:47;99578.66;;;10.01;100.00
15634;BME280;14654;48.898;8.308;2023-04-22T01:26:12;99577.81;;;10.00;100.00
15634;BME280;14654;48.898;8.308;2023-04-22T01:28:37;99583.84;;;9.99;100.00
15634;BME280;14654;48.898;8.308;2023-04-22T01:31:03;99582.09;;;10.01;100.00
15634;BME280;14654;48.898;8.308;2023-04-22T01:33:29;99587.28;;;10.01;100.00
15634;BME280;14654;48.898;8.308;2023-04-22T01:35:55;99586.41;;;10.02;100.00
15634;BME280;14654;48.898;8.308;2023-04-22T01:38:21;99595.03;;;10.01;100.00
15634;BME280;14654;48.898;8.308;2023-04-22T01:40:47;99592.44;;;10.00;100.00
15634;BME280;14654;48.898;8.308;2023-04-22T01:43:12;99595.03;;;10.00;100.00
15634;BME280;14654;48.898;8.308;2023-04-22T01:45:38;99592.53;;;9.97;100.00
15634;BME280;14654;48.898;8.308;2023-04-22T01:48:03;99596.03;;;9.93;100.00
15634;BME280;14654;48.898;8.308;2023-04-22T01:50:30;99595.25;;;9.87;100.00
15634;BME280;14654;48.898;8.308;2023-04-22T01:52:56;99589.34;;;9.82;100.00
15634;BME280;14654;48.898;8.308;2023-04-22T01:55:21;99589.44;;;9.76;100.00
15634;BME280;14654;48.898;8.308;2023-04-22T01:57:47;99584.34;;;9.71;100.00
15634;BME280;14654;48.898;8.308;2023-04-22T02:00:12;99594.69;;;9.70;100.00
15634;BME280;14654;48.898;8.308;2023-04-22T02:02:38;99587.84;;;9.67;100.00
15634;BME280;14654;48.898;8.308;2023-04-22T02:05:05;99593.06;;;9.64;100.00
15634;BME280;14654;48.898;8.308;2023-04-22T02:07:31;99590.50;;;9.63;100.00
15634;BME280;14654;48.898;8.308;2023-04-22T02:09:56;99596.56;;;9.61;100.00
15634;BME280;14654;48.898;8.308;2023-04-22T02:12:21;99600.00;;;9.60;100.00
15634;BME280;14654;48.898;8.308;2023-04-22T02:14:47;99594.84;;;9.60;100.00
15634;BME280;14654;48.898;8.308;2023-04-22T02:17:12;99589.72;;;9.59;100.00
15634;BME280;14654;48.898;8.308;2023-04-22T02:19:38;99588.84;;;9.58;100.00
15634;BME280;14654;48.898;8.308;2023-04-22T02:22:03;99587.09;;;9.60;100.00
15634;BME280;14654;48.898;8.308;2023-04-22T02:24:28;99602.63;;;9.59;100.00
15634;BME280;14654;48.898;8.308;2023-04-22T02:26:53;99609.56;;;9.57;100.00
15634;BME280;14654;48.898;8.308;2023-04-22T02:29:19;99607.03;;;9.52;100.00
15634;BME280;14654;48.898;8.308;2023-04-22T02:31:44;99597.63;;;9.46;100.00
15634;BME280;14654;48.898;8.308;2023-04-22T02:34:09;99601.16;;;9.42;100.00
15634;BME280;14654;48.898;8.308;2023-04-22T02:36:35;99601.16;;;9.41;100.00
15634;BME280;14654;48.898;8.308;2023-04-22T02:39:01;99608.94;;;9.38;100.00
15634;BME280;14654;48.898;8.308;2023-04-22T02:41:27;99610.72;;;9.36;100.00
15634;BME280;14654;48.898;8.308;2023-04-22T02:43:53;99610.78;;;9.31;100.00
15634;BME280;14654;48.898;8.308;2023-04-22T02:46:18;99614.28;;;9.28;100.00
15634;BME280;14654;48.898;8.308;2023-04-22T02:48:43;99610.00;;;9.24;100.00
15634;BME280;14654;48.898;8.308;2023-04-22T02:51:09;99603.22;;;9.20;100.00
15634;BME280;14654;48.898;8.308;2023-04-22T02:53:34;99610.13;;;9.18;100.00
15634;BME280;14654;48.898;8.308;2023-04-22T02:56:00;99615.31;;;9.15;100.00
15634;BME280;14654;48.898;8.308;2023-04-22T02:58:25;99608.47;;;9.11;100.00
15634;BME280;14654;48.898;8.308;2023-04-22T03:00:51;99612.88;;;9.06;100.00
15634;BME280;14654;48.898;8.308;2023-04-22T03:03:17;99616.38;;;9.02;100.00
15634;BME280;14654;48.898;8.308;2023-04-22T03:05:42;99615.56;;;8.96;100.00
15634;BME280;14654;48.898;8.308;2023-04-22T03:08:07;99608.78;;;8.89;100.00
15634;BME280;14654;48.898;8.308;2023-04-22T03:10:33;99607.16;;;8.82;100.00
15634;BME280;14654;48.898;8.308;2023-04-22T03:12:58;99610.63;;;8.78;100.00
15634;BME280;14654;48.898;8.308;2023-04-22T03:15:23;99602.09;;;8.74;100.00
15634;BME280;14654;48.898;8.308;2023-04-22T03:17:48;99610.72;;;8.70;100.00
15634;BME280;14654;48.898;8.308;2023-04-22T03:20:14;99604.75;;;8.66;100.00
15634;BME280;14654;48.898;8.308;2023-04-22T03:22:40;99613.41;;;8.62;100.00
15634;BME280;14654;48.898;8.308;2023-04-22T03:25:05;99616.91;;;8.57;100.00
15634;BME280;14654;48.898;8.308;2023-04-22T03:27:31;99617.84;;;8.51;100.00
15634;BME280;14654;48.898;8.308;2023-04-22T03:29:56;99618.72;;;8.45;100.00
15634;BME280;14654;48.898;8.308;2023-04-22T03:32:22;99619.66;;;8.39;100.00
15634;BME280;14654;48.898;8.308;2023-04-22T03:34:47;99623.13;;;8.35;100.00
15634;BME280;14654;48.898;8.308;2023-04-22T03:37:12;99617.16;;;8.32;100.00
15634;BME280;14654;48.898;8.308;2023-04-22T03:39:37;99612.03;;;8.29;100.00
15634;BME280;14654;48.898;8.308;2023-04-22T03:42:03;99612.88;;;8.28;100.00
15634;BME280;14654;48.898;8.308;2023-04-22T03:44:28;99610.34;;;8.24;100.00
15634;BME280;14654;48.898;8.308;2023-04-22T03:46:53;99606.94;;;8.22;100.00
15634;BME280;14654;48.898;8.308;2023-04-22T03:49:19;99615.56;;;8.21;100.00
15634;BME280;14654;48.898;8.308;2023-04-22T03:51:44;99613.81;;;8.22;100.00
15634;BME280;14654;48.898;8.308;2023-04-22T03:54:09;99615.50;;;8.24;100.00
15634;BME280;14654;48.898;8.308;2023-04-22T03:56:35;99617.22;;;8.27;100.00
15634;BME280;14654;48.898;8.308;2023-04-22T03:59:00;99604.28;;;8.30;100.00
15634;BME280;14654;48.898;8.308;2023-04-22T04:01:26;99598.22;;;8.34;100.00
15634;BME280;14654;48.898;8.308;2023-04-22T04:03:51;99600.78;;;8.36;100.00
15634;BME280;14654;48.898;8.308;2023-04-22T04:06:17;99605.91;;;8.37;100.00
15634;BME280;14654;48.898;8.308;2023-04-22T04:08:42;99599.06;;;8.38;100.00
15634;BME280;14654;48.898;8.308;2023-04-22T04:11:08;99597.31;;;8.38;100.00
15634;BME280;14654;48.898;8.308;2023-04-22T04:13:35;99589.59;;;8.37;100.00
15634;BME280;14654;48.898;8.308;2023-04-22T04:16:00;99588.72;;;8.36;100.00
15634;BME280;14654;48.898;8.308;2023-04-22T04:18:25;99588.75;;;8.33;100.00
15634;BME280;14654;48.898;8.308;2023-04-22T04:20:51;99593.97;;;8.30;100.00
15634;BME280;14654;48.898;8.308;2023-04-22T04:23:16;99599.16;;;8.26;100.00
15634;BME280;14654;48.898;8.308;2023-04-22T04:25:42;99602.69;;;8.18;100.00
15634;BME280;14654;48.898;8.308;2023-04-22T04:28:09;99594.16;;;8.10;100.00
15634;BME280;14654;48.898;8.308;2023-04-22T04:30:35;99591.66;;;8.04;100.00
15634;BME280;14654;48.898;8.308;2023-04-22T04:33:01;99591.72;;;7.99;100.00
15634;BME280;14654;48.898;8.308;2023-04-22T04:35:35;99588.31;;;7.94;100.00
15634;BME280;14654;48.898;8.308;2023-04-22T04:38:01;99590.06;;;7.90;100.00
15634;BME280;14654;48.898;8.308;2023-04-22T04:40:28;99587.53;;;7.87;100.00
15634;BME280;14654;48.898;8.308;2023-04-22T04:42:54;99586.66;;;7.88;100.00
15634;BME280;14654;48.898;8.308;2023-04-22T04:45:20;99590.06;;;7.90;100.00
15634;BME280;14654;48.898;8.308;2023-04-22T04:47:46;99596.03;;;7.94;100.00
15634;BME280;14654;48.898;8.308;2023-04-22T04:50:14;99597.72;;;7.97;100.00
15634;BME280;14654;48.898;8.308;2023-04-22T04:52:40;99602.88;;;7.98;100.00
15634;BME280;14654;48.898;8.308;2023-04-22T04:55:05;99599.41;;;8.01;100.00
15634;BME280;14654;48.898;8.308;2023-04-22T04:57:31;99600.22;;;8.04;100.00
15634;BME280;14654;48.898;8.308;2023-04-22T04:59:56;99604.47;;;8.10;100.00
15634;BME280;14654;48.898;8.308;2023-04-22T05:02:21;99601.88;;;8.10;100.00
15634;BME280;14654;48.898;8.308;2023-04-22T05:04:47;99601.03;;;8.11;100.00
15634;BME280;14654;48.898;8.308;2023-04-22T05:07:12;99608.75;;;8.13;100.00
15634;BME280;14654;48.898;8.308;2023-04-22T05:09:38;99611.34;;;8.13;100.00
15634;BME280;14654;48.898;8.308;2023-04-22T05:12:03;99612.19;;;8.15;100.00
15634;BME280;14654;48.898;8.308;2023-04-22T05:14:29;99609.53;;;8.18;100.00
15634;BME280;14654;48.898;8.308;2023-04-22T05:16:55;99612.97;;;8.21;100.00
15634;BME280;14654;48.898;8.308;2023-04-22T05:19:20;99608.59;;;8.27;100.00
15634;BME280;14654;48.898;8.308;2023-04-22T05:21:45;99610.25;;;8.32;100.00
15634;BME280;14654;48.898;8.308;2023-04-22T05:24:11;99617.91;;;8.40;100.00
15634;BME280;14654;48.898;8.308;2023-04-22T05:26:36;99614.28;;;8.61;100.00
15634;BME280;14654;48.898;8.308;2023-04-22T05:29:01;99605.38;;;9.46;100.00
15634;BME280;14654;48.898;8.308;2023-04-22T05:31:27;99614.34;;;10.74;100.00
15634;BME280;14654;48.898;8.308;2023-04-22T05:33:53;99621.41;;;11.84;100.00
15634;BME280;14654;48.898;8.308;2023-04-22T05:36:18;99625.06;;;12.76;100.00
15634;BME280;14654;48.898;8.308;2023-04-22T05:38:44;99614.97;;;13.53;100.00
15634;BME280;14654;48.898;8.308;2023-04-22T05:41:09;99621.06;;;14.06;100.00
15634;BME280;14654;48.898;8.308;2023-04-22T05:43:34;99616.63;;;14.08;99.59
15634;BME280;14654;48.898;8.308;2023-04-22T05:45:59;99619.31;;;14.32;98.99
15634;BME280;14654;48.898;8.308;2023-04-22T05:48:25;99623.47;;;15.09;96.17
15634;BME280;14654;48.898;8.308;2023-04-22T05:50:50;99626.38;;;15.68;93.54
15634;BME280;14654;48.898;8.308;2023-04-22T05:53:15;99636.03;;;15.88;92.47
15634;BME280;14654;48.898;8.308;2023-04-22T05:55:42;99630.25;;;16.23;91.71
15634;BME280;14654;48.898;8.308;2023-04-22T05:58:07;99633.00;;;16.79;89.80
15634;BME280;14654;48.898;8.308;2023-04-22T06:00:32;99629.88;;;16.51;88.14
15634;BME280;14654;48.898;8.308;2023-04-22T06:02:58;99641.56;;;16.01;89.94
15634;BME280;14654;48.898;8.308;2023-04-22T06:05:23;99642.78;;;15.49;91.88
15634;BME280;14654;48.898;8.308;2023-04-22T06:07:48;99634.50;;;15.38;92.66
15634;BME280;14654;48.898;8.308;2023-04-22T06:10:14;99634.53;;;16.03;90.81
15634;BME280;14654;48.898;8.308;2023-04-22T06:12:39;99640.97;;;16.56;88.82
15634;BME280;14654;48.898;8.308;2023-04-22T06:15:05;99637.69;;;17.10;87.61
15634;BME280;14654;48.898;8.308;2023-04-22T06:17:30;99637.25;;;17.39;86.16
15634;BME280;14654;48.898;8.308;2023-04-22T06:19:56;99637.22;;;17.58;84.66
15634;BME280;14654;48.898;8.308;2023-04-22T06:22:21;99638.28;;;17.90;83.83
15634;BME280;14654;48.898;8.308;2023-04-22T06:24:47;99636.91;;;18.01;83.31
15634;BME280;14654;48.898;8.308;2023-04-22T06:27:12;99634.44;;;18.15;83.03
15634;BME280;14654;48.898;8.308;2023-04-22T06:29:37;99631.81;;;18.15;82.61
15634;BME280;14654;48.898;8.308;2023-04-22T06:32:02;99618.44;;;18.04;82.48
15634;BME280;14654;48.898;8.308;2023-04-22T06:34:28;99627.25;;;18.01;83.04
15634;BME280;14654;48.898;8.308;2023-04-22T06:36:54;99610.44;;;18.07;83.12
15634;BME280;14654;48.898;8.308;2023-04-22T06:39:19;99613.03;;;18.07;82.77
15634;BME280;14654;48.898;8.308;2023-04-22T06:41:44;99622.75;;;17.86;83.57
15634;BME280;14654;48.898;8.308;2023-04-22T06:44:10;99622.56;;;17.90;83.86
15634;BME280;14654;48.898;8.308;2023-04-22T06:46:35;99611.47;;;18.20;82.92
15634;BME280;14654;48.898;8.308;2023-04-22T06:49:02;99620.19;;;18.54;82.40
15634;BME280;14654;48.898;8.308;2023-04-22T06:51:27;99611.97;;;18.94;81.23
15634;BME280;14654;48.898;8.308;2023-04-22T06:53:52;99615.16;;;19.47;79.49
15634;BME280;14654;48.898;8.308;2023-04-22T06:56:18;99615.75;;;19.83;77.96
15634;BME280;14654;48.898;8.308;2023-04-22T06:58:43;99618.91;;;20.04;76.45
15634;BME280;14654;48.898;8.308;2023-04-22T07:01:09;99621.63;;;20.33;75.30
15634;BME280;14654;48.898;8.308;2023-04-22T07:03:34;99617.66;;;20.55;74.30
15634;BME280;14654;48.898;8.308;2023-04-22T07:05:59;99611.28;;;20.59;73.26
15634;BME280;14654;48.898;8.308;2023-04-22T07:08:25;99613.91;;;20.59;72.94
15634;BME280;14654;48.898;8.308;2023-04-22T07:10:50;99620.09;;;20.58;73.05
15634;BME280;14654;48.898;8.308;2023-04-22T07:13:15;99627.13;;;20.58;73.33
15634;BME280;14654;48.898;8.308;2023-04-22T07:15:41;99641.13;;;20.73;73.26
15634;BME280;14654;48.898;8.308;2023-04-22T07:18:06;99634.84;;;20.90;72.85
15634;BME280;14654;48.898;8.308;2023-04-22T07:20:31;99642.38;;;20.96;72.89
15634;BME280;14654;48.898;8.308;2023-04-22T07:22:57;99633.16;;;20.89;73.63
15634;BME280;14654;48.898;8.308;2023-04-22T07:25:22;99642.69;;;20.77;73.83
15634;BME280;14654;48.898;8.308;2023-04-22T07:27:47;99642.34;;;20.67;74.46
15634;BME280;14654;48.898;8.308;2023-04-22T07:30:13;99638.63;;;20.56;74.90
15634;BME280;14654;48.898;8.308;2023-04-22T07:32:38;99633.63;;;20.52;75.25
15634;BME280;14654;48.898;8.308;2023-04-22T07:35:04;99639.34;;;20.44;75.12
15634;BME280;14654;48.898;8.308;2023-04-22T07:37:30;99625.53;;;20.40;75.22
15634;BME280;14654;48.898;8.308;2023-04-22T07:39:55;99621.41;;;20.36;75.72
15634;BME280;14654;48.898;8.308;2023-04-22T07:42:20;99620.09;;;20.29;76.34
15634;BME280;14654;48.898;8.308;2023-04-22T07:44:46;99607.78;;;20.15;75.87
15634;BME280;14654;48.898;8.308;2023-04-22T07:47:11;99611.16;;;20.03;76.56
15634;BME280;14654;48.898;8.308;2023-04-22T07:49:36;99617.44;;;19.84;76.08
15634;BME280;14654;48.898;8.308;2023-04-22T07:52:02;99604.44;;;19.67;76.43
15634;BME280;14654;48.898;8.308;2023-04-22T07:54:27;99600.84;;;19.53;76.74
15634;BME280;14654;48.898;8.308;2023-04-22T07:56:52;99600.44;;;19.45;77.35
15634;BME280;14654;48.898;8.308;2023-04-22T07:59:18;99603.50;;;19.37;77.33
15634;BME280;14654;48.898;8.308;2023-04-22T08:01:43;99605.28;;;19.37;77.65
15634;BME280;14654;48.898;8.308;2023-04-22T08:04:10;99605.38;;;19.35;78.07
15634;BME280;14654;48.898;8.308;2023-04-22T08:06:36;99600.28;;;19.32;78.76
15634;BME280;14654;48.898;8.308;2023-04-22T08:09:01;99598.59;;;19.31;78.70
15634;BME280;14654;48.898;8.308;2023-04-22T08:11:27;99592.34;;;19.33;78.57
15634;BME280;14654;48.898;8.308;2023-04-22T08:13:52;99585.25;;;19.36;78.64
15634;BME280;14654;48.898;8.308;2023-04-22T08:16:17;99586.75;;;19.40;78.78
15634;BME280;14654;48.898;8.308;2023-04-22T08:18:43;99582.41;;;19.39;77.96
15634;BME280;14654;48.898;8.308;2023-04-22T08:21:08;99581.00;;;19.33;77.29
15634;BME280;14654;48.898;8.308;2023-04-22T08:23:34;99593.44;;;19.29;77.23
15634;BME280;14654;48.898;8.308;2023-04-22T08:25:59;99586.91;;;19.37;77.44
15634;BME280;14654;48.898;8.308;2023-04-22T08:28:24;99588.34;;;19.42;77.06
15634;BME280;14654;48.898;8.308;2023-04-22T08:30:50;99591.38;;;19.50;76.96
15634;BME280;14654;48.898;8.308;2023-04-22T08:33:16;99589.91;;;19.61;77.10
15634;BME280;14654;48.898;8.308;2023-04-22T08:35:41;99592.94;;;19.69;76.90
15634;BME280;14654;48.898;8.308;2023-04-22T08:38:06;99600.44;;;19.75;76.42
15634;BME280;14654;48.898;8.308;2023-04-22T08:40:33;99596.53;;;19.83;76.66
15634;BME280;14654;48.898;8.308;2023-04-22T08:42:59;99583.41;;;19.83;76.78
15634;BME280;14654;48.898;8.308;2023-04-22T08:45:24;99585.94;;;19.84;76.30
15634;BME280;14654;48.898;8.308;2023-04-22T08:47:51;99579.75;;;19.85;75.81
15634;BME280;14654;48.898;8.308;2023-04-22T08:50:19;99584.84;;;19.88;75.03
15634;BME280;14654;48.898;8.308;2023-04-22T08:52:46;99583.00;;;19.90;74.67
15634;BME280;14654;48.898;8.308;2023-04-22T08:55:11;99575.38;;;19.86;74.32
15634;BME280;14654;48.898;8.308;2023-04-22T08:57:37;99576.81;;;19.91;74.48
15634;BME280;14654;48.898;8.308;2023-04-22T09:00:04;99571.09;;;19.99;74.63
15634;BME280;14654;48.898;8.308;2023-04-22T09:02:31;99566.97;;;20.09;74.18
15634;BME280;14654;48.898;8.308;2023-04-22T09:04:57;99566.16;;;20.09;73.90
15634;BME280;14654;48.898;8.308;2023-04-22T09:07:29;99561.66;;;20.11;71.99
15634;BME280;14654;48.898;8.308;2023-04-22T09:09:55;99557.31;;;20.10;72.11
15634;BME280;14654;48.898;8.308;2023-04-22T09:12:21;99556.41;;;20.25;71.26
15634;BME280;14654;48.898;8.308;2023-04-22T09:14:47;99554.03;;;20.21;71.29
15634;BME280;14654;48.898;8.308;2023-04-22T09:17:16;99548.31;;;20.14;71.06
15634;BME280;14654;48.898;8.308;2023-04-22T09:19:43;99542.56;;;20.07;71.73
15634;BME280;14654;48.898;8.308;2023-04-22T09:22:10;99546.44;;;20.02;71.94
15634;BME280;14654;48.898;8.308;2023-04-22T09:24:42;99544.72;;;20.01;71.48
15634;BME280;14654;48.898;8.308;2023-04-22T09:27:07;99539.13;;;20.07;71.45
15634;BME280;14654;48.898;8.308;2023-04-22T09:29:34;99537.63;;;20.17;71.80
15634;BME280;14654;48.898;8.308;2023-04-22T09:31:59;99539.59;;;20.28;71.78
15634;BME280;14654;48.898;8.308;2023-04-22T09:34:26;99538.38;;;20.34;71.78
15634;BME280;14654;48.898;8.308;2023-04-22T09:36:52;99545.78;;;20.41;72.42
15634;BME280;14654;48.898;8.308;2023-04-22T09:39:18;99545.41;;;20.48;72.54
15634;BME280;14654;48.898;8.308;2023-04-22T09:41:43;99545.00;;;20.54;72.77
15634;BME280;14654;48.898;8.308;2023-04-22T09:44:13;99543.50;;;20.64;73.22
15634;BME280;14654;48.898;8.308;2023-04-22T09:46:41;99547.31;;;20.73;73.71
15634;BME280;14654;48.898;8.308;2023-04-22T09:49:06;99549.22;;;20.85;74.26
15634;BME280;14654;48.898;8.308;2023-04-22T09:51:32;99552.19;;;20.94;73.90
15634;BME280;14654;48.898;8.308;2023-04-22T09:54:03;99552.44;;;21.04;73.54
15634;BME280;14654;48.898;8.308;2023-04-22T09:56:40;99539.03;;;21.21;73.60
15634;BME280;14654;48.898;8.308;2023-04-22T09:59:06;99538.34;;;21.32;73.33
15634;BME280;14654;48.898;8.308;2023-04-22T10:01:39;99542.47;;;21.49;73.39
15634;BME280;14654;48.898;8.308;2023-04-22T10:04:06;99541.38;;;21.66;73.49
15634;BME280;14654;48.898;8.308;2023-04-22T10:06:34;99532.75;;;21.77;73.08
15634;BME280;14654;48.898;8.308;2023-04-22T10:08:59;99538.03;;;21.90;72.76
15634;BME280;14654;48.898;8.308;2023-04-22T10:11:25;99533.16;;;22.10;71.79
15634;BME280;14654;48.898;8.308;2023-04-22T10:13:50;99529.59;;;22.23;71.80
15634;BME280;14654;48.898;8.308;2023-04-22T10:16:19;99521.66;;;22.36;71.71
15634;BME280;14654;48.898;8.308;2023-04-22T10:18:46;99514.13;;;22.56;71.43
15634;BME280;14654;48.898;8.308;2023-04-22T10:21:12;99520.00;;;22.73;71.22
15634;BME280;14654;48.898;8.308;2023-04-22T10:23:45;99514.00;;;22.95;70.70
15634;BME280;14654;48.898;8.308;2023-04-22T10:26:11;99516.97;;;23.14;70.20
15634;BME280;14654;48.898;8.308;2023-04-22T10:28:42;99523.78;;;23.30;69.36
15634;BME280;14654;48.898;8.308;2023-04-22T10:31:19;99517.88;;;23.51;67.86
15634;BME280;14654;48.898;8.308;2023-04-22T10:33:45;99524.94;;;23.62;67.85
15634;BME280;14654;48.898;8.308;2023-04-22T10:41:15;99525.41;;;24.14;66.35
15634;BME280;14654;48.898;8.308;2023-04-22T10:48:57;99515.06;;;24.33;63.23
15634;BME280;14654;48.898;8.308;2023-04-22T10:51:42;99511.22;;;24.15;63.22
15634;BME280;14654;48.898;8.308;2023-04-22T10:57:05;99518.28;;;23.80;62.39
15634;BME280;14654;48.898;8.308;2023-04-22T10:59:33;99518.25;;;23.57;62.67
15634;BME280;14654;48.898;8.308;2023-04-22T11:02:04;99521.91;;;23.43;61.12
15634;BME280;14654;48.898;8.308;2023-04-22T11:04:30;99520.53;;;23.26;60.78
15634;BME280;14654;48.898;8.308;2023-04-22T11:09:43;99524.22;;;22.99;61.20
15634;BME280;14654;48.898;8.308;2023-04-22T11:15:18;99529.00;;;22.94;61.30
15634;BME280;14654;48.898;8.308;2023-04-22T11:17:46;99518.38;;;23.07;61.79
15634;BME280;14654;48.898;8.308;2023-04-22T11:20:13;99511.34;;;23.19;62.06
15634;BME280;14654;48.898;8.308;2023-04-22T11:22:44;99512.38;;;23.29;62.25
15634;BME280;14654;48.898;8.308;2023-04-22T11:25:09;99513.53;;;23.50;62.10
15634;BME280;14654;48.898;8.308;2023-04-22T11:27:36;99512.00;;;23.58;61.78
15634;BME280;14654;48.898;8.308;2023-04-22T11:30:13;99522.78;;;23.55;60.56
15634;BME280;14654;48.898;8.308;2023-04-22T11:32:44;99519.03;;;23.47;60.23
15634;BME280;14654;48.898;8.308;2023-04-22T11:35:22;99534.03;;;23.46;60.10
15634;BME280;14654;48.898;8.308;2023-04-22T11:37:54;99527.69;;;23.49;60.08
15634;BME280;14654;48.898;8.308;2023-04-22T11:40:22;99523.72;;;23.43;60.30
15634;BME280;14654;48.898;8.308;2023-04-22T11:42:49;99537.88;;;23.42;60.75
15634;BME280;14654;48.898;8.308;2023-04-22T11:45:15;99534.66;;;23.50;60.61
15634;BME280;14654;48.898;8.308;2023-04-22T11:47:41;99542.84;;;23.58;60.27
15634;BME280;14654;48.898;8.308;2023-04-22T11:50:09;99533.53;;;23.88;59.57
15634;BME280;14654;48.898;8.308;2023-04-22T11:55:14;99539.09;;;24.53;58.63
15634;BME280;14654;48.898;8.308;2023-04-22T11:57:40;99532.25;;;24.62;57.39
15634;BME280;14654;48.898;8.308;2023-04-22T12:00:10;99524.75;;;24.67;56.78
15634;BME280;14654;48.898;8.308;2023-04-22T12:02:36;99529.34;;;24.76;56.39
15634;BME280;14654;48.898;8.308;2023-04-22T12:05:01;99524.41;;;24.83;55.46
15634;BME280;14654;48.898;8.308;2023-04-22T12:07:28;99522.78;;;25.03;56.00
15634;BME280;14654;48.898;8.308;2023-04-22T12:09:53;99520.69;;;25.18;56.24
15634;BME280;14654;48.898;8.308;2023-04-22T12:12:28;99522.66;;;25.26;56.04
15634;BME280;14654;48.898;8.308;2023-04-22T12:14:53;99526.72;;;25.09;55.59
15634;BME280;14654;48.898;8.308;2023-04-22T12:17:23;99530.88;;;24.90;56.20
15634;BME280;14654;48.898;8.308;2023-04-22T12:19:55;99524.41;;;24.83;56.74
15634;BME280;14654;48.898;8.308;2023-04-22T12:22:25;99529.91;;;24.91;56.91
15634;BME280;14654;48.898;8.308;2023-04-22T12:24:51;99527.94;;;25.05;57.11
15634;BME280;14654;48.898;8.308;2023-04-22T12:27:16;99528.88;;;25.15;57.08
15634;BME280;14654;48.898;8.308;2023-04-22T12:29:50;99524.25;;;25.29;56.48
15634;BME280;14654;48.898;8.308;2023-04-22T12:32:17;99524.94;;;25.42;56.38
15634;BME280;14654;48.898;8.308;2023-04-22T12:34:42;99523.88;;;25.54;56.39
15634;BME280;14654;48.898;8.308;2023-04-22T12:37:07;99523.13;;;25.64;56.09
15634;BME280;14654;48.898;8.308;2023-04-22T12:39:33;99525.00;;;25.73;55.97
15634;BME280;14654;48.898;8.308;2023-04-22T12:41:58;99516.91;;;25.75;56.08
15634;BME280;14654;48.898;8.308;2023-04-22T12:44:23;99516.47;;;25.69;55.68
15634;BME280;14654;48.898;8.308;2023-04-22T12:46:49;99512.91;;;25.59;55.38
15634;BME280;14654;48.898;8.308;2023-04-22T12:49:15;99508.56;;;25.58;54.68
15634;BME280;14654;48.898;8.308;2023-04-22T12:51:40;99508.97;;;25.53;54.92
15634;BME280;14654;48.898;8.308;2023-04-22T12:54:05;99505.00;;;25.69;55.33
15634;BME280;14654;48.898;8.308;2023-04-22T12:56:31;99509.63;;;25.98;55.33
15634;BME280;14654;48.898;8.308;2023-04-22T12:58:56;99509.50;;;26.21;55.24
15634;BME280;14654;48.898;8.308;2023-04-22T13:01:27;99512.19;;;26.30;54.85
15634;BME280;14654;48.898;8.308;2023-04-22T13:03:52;99514.28;;;26.37;55.40
15634;BME280;14654;48.898;8.308;2023-04-22T13:06:17;99505.81;;;26.53;55.41
15634;BME280;14654;48.898;8.308;2023-04-22T13:08:43;99504.56;;;26.67;53.90
15634;BME280;14654;48.898;8.308;2023-04-22T13:11:08;99504.13;;;26.52;53.87
15634;BME280;14654;48.898;8.308;2023-04-22T13:13:33;99502.44;;;26.41;54.36